sensor_id;sensor_type;location;lat;lon;timestamp;P1;durP1;ratioP1;P2;durP2;ratioP2
2161;SDS011;1087;50.226;8.682;2022-12-18T00:02:00;23.93;;;12.47;;
2161;SDS011;1087;50.226;8.682;2022-12-18T00:04:26;21.10;;;11.80;;
2161;SDS011;1087;50.226;8.682;2022-12-18T00:06:52;17.97;;;11.07;;
2161;SDS011;1087;50.226;8.682;2022-12-18T00:09:18;18.33;;;11.07;;
2161;SDS011;1087;50.226;8.682;2022-12-18T00:11:44;16.80;;;10.60;;
2161;SDS011;1087;50.226;8.682;2022-12-18T00:14:10;16.70;;;10.70;;
2161;SDS011;1087;50.226;8.682;2022-12-18T00:16:36;22.03;;;11.23;;
2161;SDS011;1087;50.226;8.682;2022-12-18T00:19:02;18.30;;;11.07;;
2161;SDS011;1087;50.226;8.682;2022-12-18T00:21:29;17.73;;;12.57;;
2161;SDS011;1087;50.226;8.682;2022-12-18T00:23:56;20.37;;;11.10;;
2161;SDS011;1087;50.226;8.682;2022-12-18T00:26:23;14.33;;;9.70;;
2161;SDS011;1087;50.226;8.682;2022-12-18T00:28:54;27.13;;;13.47;;
2161;SDS011;1087;50.226;8.682;2022-12-18T00:31:22;19.93;;;11.00;;
2161;SDS011;1087;50.226;8.682;2022-12-18T00:33:49;17.90;;;11.00;;
2161;SDS011;1087;50.226;8.682;2022-12-18T00:36:16;18.33;;;10.87;;
2161;SDS011;1087;50.226;8.682;2022-12-18T00:38:43;21.07;;;10.10;;
2161;SDS011;1087;50.226;8.682;2022-12-18T00:41:10;17.87;;;11.07;;
2161;SDS011;1087;50.226;8.682;2022-12-18T00:43:37;19.80;;;12.77;;
2161;SDS011;1087;50.226;8.682;2022-12-18T00:46:03;20.70;;;11.60;;
2161;SDS011;1087;50.226;8.682;2022-12-18T00:48:29;18.50;;;9.90;;
2161;SDS011;1087;50.226;8.682;2022-12-18T00:50:55;22.67;;;11.13;;
2161;SDS011;1087;50.226;8.682;2022-12-18T00:53:20;17.77;;;10.20;;
2161;SDS011;1087;50.226;8.682;2022-12-18T00:55:46;19.20;;;11.50;;
2161;SDS011;1087;50.226;8.682;2022-12-18T00:58:12;17.90;;;10.93;;
2161;SDS011;1087;50.226;8.682;2022-12-18T01:00:39;17.40;;;10.03;;
2161;SDS011;1087;50.226;8.682;2022-12-18T01:03:05;15.60;;;9.57;;
2161;SDS011;1087;50.226;8.682;2022-12-18T01:05:30;23.93;;;10.20;;
2161;SDS011;1087;50.226;8.682;2022-12-18T01:07:56;19.63;;;10.00;;
2161;SDS011;1087;50.226;8.682;2022-12-18T01:10:22;22.77;;;11.00;;
2161;SDS011;1087;50.226;8.682;2022-12-18T01:12:48;18.27;;;11.03;;
2161;SDS011;1087;50.226;8.682;2022-12-18T01:15:14;21.40;;;11.50;;
2161;SDS011;1087;50.226;8.682;2022-12-18T01:17:40;21.73;;;11.77;;
2161;SDS011;1087;50.226;8.682;2022-12-18T01:20:06;20.70;;;11.80;;
2161;SDS011;1087;50.226;8.682;2022-12-18T01:22:33;19.50;;;10.70;;
2161;SDS011;1087;50.226;8.682;2022-12-18T01:24:59;16.93;;;10.20;;
2161;SDS011;1087;50.226;8.682;2022-12-18T01:27:25;18.83;;;11.53;;
2161;SDS011;1087;50.226;8.682;2022-12-18T01:29:50;21.63;;;10.53;;
2161;SDS011;1087;50.226;8.682;2022-12-18T01:32:16;21.63;;;11.67;;
2161;SDS011;1087;50.226;8.682;2022-12-18T01:34:41;21.13;;;11.60;;
2161;SDS011;1087;50.226;8.682;2022-12-18T01:37:07;20.67;;;11.80;;
2161;SDS011;1087;50.226;8.682;2022-12-18T01:39:33;19.00;;;11.83;;
2161;SDS011;1087;50.226;8.682;2022-12-18T01:41:59;23.27;;;12.40;;
2161;SDS011;1087;50.226;8.682;2022-12-18T01:49:53;17.70;;;9.97;;
2161;SDS011;1087;50.226;8.682;2022-12-18T01:52:20;22.63;;;10.87;;
2161;SDS011;1087;50.226;8.682;2022-12-18T01:54:47;19.87;;;10.27;;
2161;SDS011;1087;50.226;8.682;2022-12-18T01:57:15;25.03;;;11.90;;
2161;SDS011;1087;50.226;8.682;2022-12-18T01:59:41;26.70;;;11.50;;
2161;SDS011;1087;50.226;8.682;2022-12-18T02:02:09;15.97;;;9.10;;
2161;SDS011;1087;50.226;8.682;2022-12-18T02:04:36;19.13;;;10.17;;
2161;SDS011;1087;50.226;8.682;2022-12-18T02:07:14;19.10;;;11.60;;
2161;SDS011;1087;50.226;8.682;2022-12-18T02:09:46;21.23;;;11.33;;
2161;SDS011;1087;50.226;8.682;2022-12-18T02:12:24;17.20;;;9.90;;
2161;SDS011;1087;50.226;8.682;2022-12-18T02:15:06;21.30;;;10.77;;
2161;SDS011;1087;50.226;8.682;2022-12-18T02:17:48;20.67;;;11.37;;
2161;SDS011;1087;50.226;8.682;2022-12-18T02:23:00;20.33;;;11.00;;
2161;SDS011;1087;50.226;8.682;2022-12-18T02:28:28;21.93;;;12.90;;
2161;SDS011;1087;50.226;8.682;2022-12-18T02:30:57;22.93;;;11.47;;
2161;SDS011;1087;50.226;8.682;2022-12-18T02:33:27;22.90;;;11.30;;
2161;SDS011;1087;50.226;8.682;2022-12-18T02:35:53;22.90;;;11.13;;
2161;SDS011;1087;50.226;8.682;2022-12-18T02:38:21;18.33;;;11.10;;
2161;SDS011;1087;50.226;8.682;2022-12-18T02:40:49;19.10;;;9.20;;
2161;SDS011;1087;50.226;8.682;2022-12-18T02:43:17;17.30;;;10.80;;
2161;SDS011;1087;50.226;8.682;2022-12-18T02:45:56;17.80;;;10.67;;
2161;SDS011;1087;50.226;8.682;2022-12-18T02:48:24;17.33;;;10.07;;
2161;SDS011;1087;50.226;8.682;2022-12-18T02:53:45;23.30;;;11.50;;
2161;SDS011;1087;50.226;8.682;2022-12-18T02:56:32;24.03;;;11.77;;
2161;SDS011;1087;50.226;8.682;2022-12-18T02:59:04;19.90;;;9.77;;
2161;SDS011;1087;50.226;8.682;2022-12-18T03:01:38;17.27;;;10.20;;
2161;SDS011;1087;50.226;8.682;2022-12-18T03:04:09;22.03;;;11.47;;
2161;SDS011;1087;50.226;8.682;2022-12-18T03:06:39;16.10;;;9.73;;
2161;SDS011;1087;50.226;8.682;2022-12-18T03:09:09;18.83;;;10.43;;
2161;SDS011;1087;50.226;8.682;2022-12-18T03:11:40;15.70;;;10.30;;
2161;SDS011;1087;50.226;8.682;2022-12-18T03:14:28;18.57;;;12.10;;
2161;SDS011;1087;50.226;8.682;2022-12-18T03:16:57;20.47;;;10.63;;
2161;SDS011;1087;50.226;8.682;2022-12-18T03:19:26;20.80;;;11.07;;
2161;SDS011;1087;50.226;8.682;2022-12-18T03:21:55;16.60;;;10.40;;
2161;SDS011;1087;50.226;8.682;2022-12-18T03:24:23;17.83;;;9.80;;
2161;SDS011;1087;50.226;8.682;2022-12-18T03:26:52;19.17;;;10.27;;
2161;SDS011;1087;50.226;8.682;2022-12-18T03:29:21;15.40;;;10.60;;
2161;SDS011;1087;50.226;8.682;2022-12-18T03:31:51;13.87;;;9.17;;
2161;SDS011;1087;50.226;8.682;2022-12-18T03:34:21;16.97;;;10.20;;
2161;SDS011;1087;50.226;8.682;2022-12-18T03:36:51;19.83;;;9.20;;
2161;SDS011;1087;50.226;8.682;2022-12-18T03:39:16;18.53;;;10.40;;
2161;SDS011;1087;50.226;8.682;2022-12-18T03:44:32;15.07;;;10.43;;
2161;SDS011;1087;50.226;8.682;2022-12-18T03:47:14;15.23;;;9.70;;
2161;SDS011;1087;50.226;8.682;2022-12-18T03:50:15;15.77;;;9.50;;
2161;SDS011;1087;50.226;8.682;2022-12-18T03:52:59;21.30;;;11.20;;
2161;SDS011;1087;50.226;8.682;2022-12-18T03:55:32;16.07;;;10.57;;
2161;SDS011;1087;50.226;8.682;2022-12-18T03:58:00;14.90;;;9.70;;
2161;SDS011;1087;50.226;8.682;2022-12-18T04:00:28;17.97;;;10.20;;
2161;SDS011;1087;50.226;8.682;2022-12-18T04:02:56;12.67;;;9.37;;
2161;SDS011;1087;50.226;8.682;2022-12-18T04:05:24;15.77;;;10.27;;
2161;SDS011;1087;50.226;8.682;2022-12-18T04:07:53;19.20;;;10.27;;
2161;SDS011;1087;50.226;8.682;2022-12-18T04:10:21;19.17;;;10.83;;
2161;SDS011;1087;50.226;8.682;2022-12-18T04:12:46;17.30;;;10.57;;
2161;SDS011;1087;50.226;8.682;2022-12-18T04:15:12;15.13;;;9.40;;
2161;SDS011;1087;50.226;8.682;2022-12-18T04:17:38;17.30;;;9.80;;
2161;SDS011;1087;50.226;8.682;2022-12-18T04:20:14;22.37;;;11.20;;
2161;SDS011;1087;50.226;8.682;2022-12-18T04:22:40;14.70;;;9.27;;
2161;SDS011;1087;50.226;8.682;2022-12-18T04:25:05;21.27;;;11.00;;
2161;SDS011;1087;50.226;8.682;2022-12-18T04:27:31;19.00;;;10.50;;
2161;SDS011;1087;50.226;8.682;2022-12-18T04:29:57;20.43;;;9.93;;
2161;SDS011;1087;50.226;8.682;2022-12-18T04:32:22;18.23;;;10.40;;
2161;SDS011;1087;50.226;8.682;2022-12-18T04:34:48;21.70;;;11.70;;
2161;SDS011;1087;50.226;8.682;2022-12-18T04:37:13;15.53;;;9.07;;
2161;SDS011;1087;50.226;8.682;2022-12-18T04:39:39;16.50;;;10.13;;
2161;SDS011;1087;50.226;8.682;2022-12-18T04:42:04;19.03;;;10.10;;
2161;SDS011;1087;50.226;8.682;2022-12-18T04:44:30;14.20;;;9.60;;
2161;SDS011;1087;50.226;8.682;2022-12-18T04:46:56;17.00;;;10.40;;
2161;SDS011;1087;50.226;8.682;2022-12-18T04:49:21;18.33;;;11.63;;
2161;SDS011;1087;50.226;8.682;2022-12-18T04:51:47;16.23;;;9.53;;
2161;SDS011;1087;50.226;8.682;2022-12-18T04:54:12;16.27;;;9.33;;
2161;SDS011;1087;50.226;8.682;2022-12-18T04:56:38;16.23;;;9.30;;
2161;SDS011;1087;50.226;8.682;2022-12-18T04:59:03;20.43;;;9.80;;
2161;SDS011;1087;50.226;8.682;2022-12-18T05:01:29;14.60;;;9.70;;
2161;SDS011;1087;50.226;8.682;2022-12-18T05:03:55;18.40;;;9.67;;
2161;SDS011;1087;50.226;8.682;2022-12-18T05:06:20;15.33;;;9.07;;
2161;SDS011;1087;50.226;8.682;2022-12-18T05:08:46;19.57;;;11.27;;
2161;SDS011;1087;50.226;8.682;2022-12-18T05:11:12;15.87;;;9.67;;
2161;SDS011;1087;50.226;8.682;2022-12-18T05:13:43;17.43;;;10.20;;
2161;SDS011;1087;50.226;8.682;2022-12-18T05:16:09;13.83;;;9.63;;
2161;SDS011;1087;50.226;8.682;2022-12-18T05:18:36;18.43;;;9.50;;
2161;SDS011;1087;50.226;8.682;2022-12-18T05:21:02;19.43;;;10.93;;
2161;SDS011;1087;50.226;8.682;2022-12-18T05:23:28;17.77;;;11.60;;
2161;SDS011;1087;50.226;8.682;2022-12-18T05:25:54;21.40;;;12.17;;
2161;SDS011;1087;50.226;8.682;2022-12-18T05:28:22;17.23;;;10.60;;
2161;SDS011;1087;50.226;8.682;2022-12-18T05:30:49;17.17;;;11.20;;
2161;SDS011;1087;50.226;8.682;2022-12-18T05:33:16;23.73;;;12.63;;
2161;SDS011;1087;50.226;8.682;2022-12-18T05:35:42;21.10;;;13.30;;
2161;SDS011;1087;50.226;8.682;2022-12-18T05:38:08;20.30;;;11.87;;
2161;SDS011;1087;50.226;8.682;2022-12-18T05:40:33;23.60;;;11.50;;
2161;SDS011;1087;50.226;8.682;2022-12-18T05:42:59;17.67;;;11.50;;
2161;SDS011;1087;50.226;8.682;2022-12-18T05:45:25;22.23;;;14.20;;
2161;SDS011;1087;50.226;8.682;2022-12-18T05:47:50;27.50;;;16.67;;
2161;SDS011;1087;50.226;8.682;2022-12-18T05:50:16;23.67;;;13.80;;
2161;SDS011;1087;50.226;8.682;2022-12-18T05:52:41;26.43;;;14.13;;
2161;SDS011;1087;50.226;8.682;2022-12-18T05:55:07;22.00;;;12.83;;
2161;SDS011;1087;50.226;8.682;2022-12-18T05:57:32;20.10;;;10.67;;
2161;SDS011;1087;50.226;8.682;2022-12-18T05:59:58;17.60;;;9.33;;
2161;SDS011;1087;50.226;8.682;2022-12-18T06:02:23;14.33;;;9.67;;
2161;SDS011;1087;50.226;8.682;2022-12-18T06:04:49;18.27;;;10.10;;
2161;SDS011;1087;50.226;8.682;2022-12-18T06:07:14;19.00;;;10.70;;
2161;SDS011;1087;50.226;8.682;2022-12-18T06:09:40;18.47;;;10.73;;
2161;SDS011;1087;50.226;8.682;2022-12-18T06:12:05;20.40;;;12.30;;
2161;SDS011;1087;50.226;8.682;2022-12-18T06:14:31;19.57;;;11.47;;
2161;SDS011;1087;50.226;8.682;2022-12-18T06:16:57;18.90;;;12.03;;
2161;SDS011;1087;50.226;8.682;2022-12-18T06:19:22;19.53;;;11.50;;
2161;SDS011;1087;50.226;8.682;2022-12-18T06:21:48;18.60;;;10.53;;
2161;SDS011;1087;50.226;8.682;2022-12-18T06:24:15;16.57;;;10.20;;
2161;SDS011;1087;50.226;8.682;2022-12-18T06:26:40;20.90;;;11.63;;
2161;SDS011;1087;50.226;8.682;2022-12-18T06:29:06;16.00;;;10.23;;
2161;SDS011;1087;50.226;8.682;2022-12-18T06:31:31;16.57;;;10.07;;
2161;SDS011;1087;50.226;8.682;2022-12-18T06:33:57;20.50;;;11.57;;
2161;SDS011;1087;50.226;8.682;2022-12-18T06:36:23;19.73;;;10.43;;
2161;SDS011;1087;50.226;8.682;2022-12-18T06:38:48;17.07;;;10.10;;
2161;SDS011;1087;50.226;8.682;2022-12-18T06:41:15;17.70;;;10.97;;
2161;SDS011;1087;50.226;8.682;2022-12-18T06:43:42;22.90;;;10.60;;
2161;SDS011;1087;50.226;8.682;2022-12-18T06:46:08;17.67;;;10.60;;
2161;SDS011;1087;50.226;8.682;2022-12-18T06:48:34;20.43;;;10.77;;
2161;SDS011;1087;50.226;8.682;2022-12-18T06:51:00;19.70;;;10.53;;
2161;SDS011;1087;50.226;8.682;2022-12-18T06:53:26;19.93;;;10.00;;
2161;SDS011;1087;50.226;8.682;2022-12-18T06:55:52;18.33;;;9.53;;
2161;SDS011;1087;50.226;8.682;2022-12-18T06:58:18;16.10;;;11.20;;
2161;SDS011;1087;50.226;8.682;2022-12-18T07:00:43;20.93;;;11.83;;
2161;SDS011;1087;50.226;8.682;2022-12-18T07:03:09;25.27;;;11.60;;
2161;SDS011;1087;50.226;8.682;2022-12-18T07:05:39;23.70;;;12.43;;
2161;SDS011;1087;50.226;8.682;2022-12-18T07:08:05;33.67;;;17.13;;
2161;SDS011;1087;50.226;8.682;2022-12-18T07:10:31;30.63;;;15.30;;
2161;SDS011;1087;50.226;8.682;2022-12-18T07:12:57;18.20;;;10.87;;
2161;SDS011;1087;50.226;8.682;2022-12-18T07:15:22;19.53;;;12.10;;
2161;SDS011;1087;50.226;8.682;2022-12-18T07:17:48;20.70;;;11.53;;
2161;SDS011;1087;50.226;8.682;2022-12-18T07:20:13;19.70;;;12.20;;
2161;SDS011;1087;50.226;8.682;2022-12-18T07:22:39;22.13;;;13.07;;
2161;SDS011;1087;50.226;8.682;2022-12-18T07:25:04;19.87;;;11.27;;
2161;SDS011;1087;50.226;8.682;2022-12-18T07:27:30;16.60;;;10.47;;
2161;SDS011;1087;50.226;8.682;2022-12-18T07:29:56;16.20;;;10.07;;
2161;SDS011;1087;50.226;8.682;2022-12-18T07:32:22;17.60;;;9.80;;
2161;SDS011;1087;50.226;8.682;2022-12-18T07:34:47;18.33;;;9.80;;
2161;SDS011;1087;50.226;8.682;2022-12-18T07:37:13;16.93;;;10.60;;
2161;SDS011;1087;50.226;8.682;2022-12-18T07:39:38;21.97;;;10.00;;
2161;SDS011;1087;50.226;8.682;2022-12-18T07:42:04;16.10;;;11.40;;
2161;SDS011;1087;50.226;8.682;2022-12-18T07:44:48;14.50;;;9.90;;
2161;SDS011;1087;50.226;8.682;2022-12-18T07:47:13;16.80;;;11.20;;
2161;SDS011;1087;50.226;8.682;2022-12-18T07:49:39;14.93;;;10.93;;
2161;SDS011;1087;50.226;8.682;2022-12-18T07:52:05;16.70;;;10.23;;
2161;SDS011;1087;50.226;8.682;2022-12-18T07:54:30;22.67;;;12.83;;
2161;SDS011;1087;50.226;8.682;2022-12-18T07:56:56;19.00;;;12.27;;
2161;SDS011;1087;50.226;8.682;2022-12-18T07:59:21;23.33;;;13.57;;
2161;SDS011;1087;50.226;8.682;2022-12-18T08:01:47;15.70;;;12.17;;
2161;SDS011;1087;50.226;8.682;2022-12-18T08:04:12;19.30;;;13.17;;
2161;SDS011;1087;50.226;8.682;2022-12-18T08:06:38;19.27;;;12.60;;
2161;SDS011;1087;50.226;8.682;2022-12-18T08:09:03;20.73;;;12.67;;
2161;SDS011;1087;50.226;8.682;2022-12-18T08:11:29;17.03;;;13.00;;
2161;SDS011;1087;50.226;8.682;2022-12-18T08:13:54;17.73;;;12.77;;
2161;SDS011;1087;50.226;8.682;2022-12-18T08:16:20;21.03;;;13.57;;
2161;SDS011;1087;50.226;8.682;2022-12-18T08:18:48;20.27;;;12.07;;
2161;SDS011;1087;50.226;8.682;2022-12-18T08:21:18;16.47;;;10.97;;
2161;SDS011;1087;50.226;8.682;2022-12-18T08:23:55;18.07;;;11.20;;
2161;SDS011;1087;50.226;8.682;2022-12-18T08:26:22;19.87;;;11.90;;
2161;SDS011;1087;50.226;8.682;2022-12-18T08:28:50;19.57;;;9.73;;
2161;SDS011;1087;50.226;8.682;2022-12-18T08:31:16;21.83;;;13.57;;
2161;SDS011;1087;50.226;8.682;2022-12-18T08:33:42;17.37;;;11.10;;
2161;SDS011;1087;50.226;8.682;2022-12-18T08:36:08;16.50;;;12.53;;
2161;SDS011;1087;50.226;8.682;2022-12-18T08:38:34;18.00;;;11.33;;
2161;SDS011;1087;50.226;8.682;2022-12-18T08:41:08;18.07;;;11.77;;
2161;SDS011;1087;50.226;8.682;2022-12-18T08:43:34;28.23;;;13.50;;
2161;SDS011;1087;50.226;8.682;2022-12-18T08:46:19;27.70;;;13.10;;
2161;SDS011;1087;50.226;8.682;2022-12-18T08:48:46;21.43;;;11.60;;
2161;SDS011;1087;50.226;8.682;2022-12-18T08:51:12;21.40;;;12.87;;
2161;SDS011;1087;50.226;8.682;2022-12-18T08:53:40;23.63;;;13.57;;
2161;SDS011;1087;50.226;8.682;2022-12-18T08:56:05;21.60;;;13.53;;
2161;SDS011;1087;50.226;8.682;2022-12-18T08:58:32;23.70;;;12.50;;
2161;SDS011;1087;50.226;8.682;2022-12-18T09:01:03;22.07;;;14.57;;
2161;SDS011;1087;50.226;8.682;2022-12-18T09:03:29;23.30;;;15.70;;
2161;SDS011;1087;50.226;8.682;2022-12-18T09:05:55;28.03;;;17.27;;
2161;SDS011;1087;50.226;8.682;2022-12-18T09:08:20;23.90;;;14.70;;
2161;SDS011;1087;50.226;8.682;2022-12-18T09:10:46;22.93;;;15.30;;
2161;SDS011;1087;50.226;8.682;2022-12-18T09:13:14;27.23;;;14.80;;
2161;SDS011;1087;50.226;8.682;2022-12-18T09:15:44;22.13;;;13.60;;
2161;SDS011;1087;50.226;8.682;2022-12-18T09:18:12;33.00;;;18.77;;
2161;SDS011;1087;50.226;8.682;2022-12-18T09:20:39;25.07;;;14.97;;
2161;SDS011;1087;50.226;8.682;2022-12-18T09:23:05;27.97;;;14.80;;
2161;SDS011;1087;50.226;8.682;2022-12-18T09:25:31;20.07;;;13.40;;
2161;SDS011;1087;50.226;8.682;2022-12-18T09:27:58;26.03;;;15.90;;
2161;SDS011;1087;50.226;8.682;2022-12-18T09:30:25;30.20;;;16.67;;
2161;SDS011;1087;50.226;8.682;2022-12-18T09:32:51;27.07;;;14.50;;
2161;SDS011;1087;50.226;8.682;2022-12-18T09:35:17;27.00;;;16.80;;
2161;SDS011;1087;50.226;8.682;2022-12-18T09:37:42;27.60;;;15.77;;
2161;SDS011;1087;50.226;8.682;2022-12-18T09:40:13;30.90;;;17.83;;
2161;SDS011;1087;50.226;8.682;2022-12-18T09:42:41;31.93;;;17.30;;
2161;SDS011;1087;50.226;8.682;2022-12-18T09:45:13;42.83;;;26.47;;
2161;SDS011;1087;50.226;8.682;2022-12-18T09:47:41;35.63;;;21.90;;
2161;SDS011;1087;50.226;8.682;2022-12-18T09:50:16;40.50;;;23.63;;
2161;SDS011;1087;50.226;8.682;2022-12-18T09:52:55;34.87;;;22.30;;
2161;SDS011;1087;50.226;8.682;2022-12-18T09:55:28;34.70;;;22.60;;
2161;SDS011;1087;50.226;8.682;2022-12-18T09:58:06;29.33;;;19.67;;
2161;SDS011;1087;50.226;8.682;2022-12-18T10:00:36;30.50;;;19.17;;
2161;SDS011;1087;50.226;8.682;2022-12-18T10:03:09;36.70;;;20.93;;
2161;SDS011;1087;50.226;8.682;2022-12-18T10:10:58;33.70;;;20.27;;
2161;SDS011;1087;50.226;8.682;2022-12-18T10:13:39;31.27;;;22.00;;
2161;SDS011;1087;50.226;8.682;2022-12-18T10:21:36;31.13;;;22.07;;
2161;SDS011;1087;50.226;8.682;2022-12-18T10:24:30;28.67;;;21.07;;
2161;SDS011;1087;50.226;8.682;2022-12-18T10:27:11;37.53;;;21.93;;
2161;SDS011;1087;50.226;8.682;2022-12-18T10:29:42;33.73;;;23.27;;
2161;SDS011;1087;50.226;8.682;2022-12-18T10:32:13;31.37;;;20.27;;
2161;SDS011;1087;50.226;8.682;2022-12-18T10:34:50;37.07;;;21.93;;
2161;SDS011;1087;50.226;8.682;2022-12-18T10:37:19;35.03;;;21.80;;
2161;SDS011;1087;50.226;8.682;2022-12-18T10:39:46;36.50;;;22.70;;
2161;SDS011;1087;50.226;8.682;2022-12-18T10:42:30;37.10;;;22.63;;
2161;SDS011;1087;50.226;8.682;2022-12-18T10:45:12;113.33;;;58.73;;
2161;SDS011;1087;50.226;8.682;2022-12-18T10:47:48;247.77;;;88.40;;
2161;SDS011;1087;50.226;8.682;2022-12-18T10:50:18;37.80;;;24.73;;
2161;SDS011;1087;50.226;8.682;2022-12-18T10:52:58;35.00;;;22.40;;
2161;SDS011;1087;50.226;8.682;2022-12-18T10:55:27;34.33;;;23.50;;
2161;SDS011;1087;50.226;8.682;2022-12-18T10:58:16;36.40;;;24.00;;
2161;SDS011;1087;50.226;8.682;2022-12-18T11:00:45;35.23;;;23.37;;
2161;SDS011;1087;50.226;8.682;2022-12-18T11:03:41;35.47;;;23.07;;
2161;SDS011;1087;50.226;8.682;2022-12-18T11:06:12;37.27;;;24.57;;
2161;SDS011;1087;50.226;8.682;2022-12-18T11:08:40;44.83;;;26.80;;
2161;SDS011;1087;50.226;8.682;2022-12-18T11:11:14;50.30;;;29.30;;
2161;SDS011;1087;50.226;8.682;2022-12-18T11:13:55;55.13;;;35.47;;
2161;SDS011;1087;50.226;8.682;2022-12-18T11:16:23;64.40;;;33.90;;
2161;SDS011;1087;50.226;8.682;2022-12-18T11:18:49;54.73;;;33.43;;
2161;SDS011;1087;50.226;8.682;2022-12-18T11:21:14;56.50;;;32.40;;
2161;SDS011;1087;50.226;8.682;2022-12-18T11:23:49;45.70;;;27.33;;
2161;SDS011;1087;50.226;8.682;2022-12-18T11:26:16;44.10;;;25.17;;
2161;SDS011;1087;50.226;8.682;2022-12-18T11:31:33;46.87;;;24.97;;
2161;SDS011;1087;50.226;8.682;2022-12-18T11:34:12;42.33;;;25.07;;
2161;SDS011;1087;50.226;8.682;2022-12-18T11:36:49;43.33;;;23.50;;
2161;SDS011;1087;50.226;8.682;2022-12-18T11:39:17;45.10;;;24.47;;
2161;SDS011;1087;50.226;8.682;2022-12-18T11:41:48;40.37;;;23.70;;
2161;SDS011;1087;50.226;8.682;2022-12-18T11:44:46;43.70;;;24.33;;
2161;SDS011;1087;50.226;8.682;2022-12-18T11:49:51;39.63;;;23.43;;
2161;SDS011;1087;50.226;8.682;2022-12-18T11:52:22;41.33;;;22.30;;
2161;SDS011;1087;50.226;8.682;2022-12-18T11:54:52;38.27;;;23.10;;
2161;SDS011;1087;50.226;8.682;2022-12-18T11:57:37;43.40;;;22.73;;
2161;SDS011;1087;50.226;8.682;2022-12-18T12:00:12;41.50;;;23.37;;
2161;SDS011;1087;50.226;8.682;2022-12-18T12:03:43;45.63;;;23.70;;
2161;SDS011;1087;50.226;8.682;2022-12-18T12:11:08;46.10;;;22.20;;
2161;SDS011;1087;50.226;8.682;2022-12-18T12:13:55;48.37;;;24.50;;
2161;SDS011;1087;50.226;8.682;2022-12-18T12:16:55;41.90;;;21.00;;
2161;SDS011;1087;50.226;8.682;2022-12-18T12:22:06;45.47;;;24.17;;
2161;SDS011;1087;50.226;8.682;2022-12-18T12:24:55;43.47;;;22.83;;
2161;SDS011;1087;50.226;8.682;2022-12-18T12:31:29;45.00;;;21.73;;
2161;SDS011;1087;50.226;8.682;2022-12-18T12:39:21;43.70;;;22.93;;
2161;SDS011;1087;50.226;8.682;2022-12-18T12:41:52;46.40;;;26.70;;
2161;SDS011;1087;50.226;8.682;2022-12-18T12:44:46;43.37;;;23.60;;
2161;SDS011;1087;50.226;8.682;2022-12-18T12:47:19;48.90;;;22.30;;
2161;SDS011;1087;50.226;8.682;2022-12-18T12:49:48;46.23;;;23.70;;
2161;SDS011;1087;50.226;8.682;2022-12-18T12:52:16;44.40;;;24.73;;
2161;SDS011;1087;50.226;8.682;2022-12-18T12:54:48;50.40;;;25.73;;
2161;SDS011;1087;50.226;8.682;2022-12-18T12:57:18;40.87;;;22.80;;
2161;SDS011;1087;50.226;8.682;2022-12-18T13:02:38;46.27;;;22.80;;
2161;SDS011;1087;50.226;8.682;2022-12-18T13:08:12;40.90;;;22.27;;
2161;SDS011;1087;50.226;8.682;2022-12-18T13:10:53;41.17;;;22.00;;
2161;SDS011;1087;50.226;8.682;2022-12-18T13:16:44;42.20;;;21.17;;
2161;SDS011;1087;50.226;8.682;2022-12-18T13:19:18;48.97;;;23.17;;
2161;SDS011;1087;50.226;8.682;2022-12-18T13:21:54;47.10;;;24.30;;
2161;SDS011;1087;50.226;8.682;2022-12-18T13:24:23;43.60;;;24.87;;
2161;SDS011;1087;50.226;8.682;2022-12-18T13:26:52;46.47;;;23.60;;
2161;SDS011;1087;50.226;8.682;2022-12-18T13:29:40;43.60;;;23.80;;
2161;SDS011;1087;50.226;8.682;2022-12-18T13:32:18;47.50;;;22.10;;
2161;SDS011;1087;50.226;8.682;2022-12-18T13:34:59;45.27;;;25.43;;
2161;SDS011;1087;50.226;8.682;2022-12-18T13:37:53;42.23;;;23.70;;
2161;SDS011;1087;50.226;8.682;2022-12-18T13:43:14;43.03;;;22.60;;
2161;SDS011;1087;50.226;8.682;2022-12-18T13:45:45;39.03;;;22.57;;
2161;SDS011;1087;50.226;8.682;2022-12-18T13:48:21;47.53;;;24.50;;
2161;SDS011;1087;50.226;8.682;2022-12-18T13:50:51;38.13;;;21.10;;
2161;SDS011;1087;50.226;8.682;2022-12-18T13:53:21;44.50;;;23.80;;
2161;SDS011;1087;50.226;8.682;2022-12-18T13:55:49;43.33;;;23.20;;
2161;SDS011;1087;50.226;8.682;2022-12-18T13:58:15;39.97;;;22.30;;
2161;SDS011;1087;50.226;8.682;2022-12-18T14:00:41;48.30;;;24.57;;
2161;SDS011;1087;50.226;8.682;2022-12-18T14:03:24;39.63;;;24.10;;
2161;SDS011;1087;50.226;8.682;2022-12-18T14:05:52;43.80;;;23.77;;
2161;SDS011;1087;50.226;8.682;2022-12-18T14:08:36;41.77;;;21.43;;
2161;SDS011;1087;50.226;8.682;2022-12-18T14:11:04;40.00;;;23.17;;
2161;SDS011;1087;50.226;8.682;2022-12-18T14:13:32;40.20;;;24.83;;
2161;SDS011;1087;50.226;8.682;2022-12-18T14:16:00;44.87;;;20.67;;
2161;SDS011;1087;50.226;8.682;2022-12-18T14:21:27;42.37;;;22.50;;
2161;SDS011;1087;50.226;8.682;2022-12-18T14:26:50;38.77;;;22.40;;
2161;SDS011;1087;50.226;8.682;2022-12-18T14:29:26;42.40;;;24.30;;
2161;SDS011;1087;50.226;8.682;2022-12-18T14:34:38;46.80;;;24.97;;
2161;SDS011;1087;50.226;8.682;2022-12-18T14:37:05;44.33;;;24.00;;
2161;SDS011;1087;50.226;8.682;2022-12-18T14:39:34;43.67;;;23.33;;
2161;SDS011;1087;50.226;8.682;2022-12-18T14:41:59;39.83;;;22.90;;
2161;SDS011;1087;50.226;8.682;2022-12-18T14:44:25;44.60;;;23.63;;
2161;SDS011;1087;50.226;8.682;2022-12-18T14:46:50;36.47;;;21.23;;
2161;SDS011;1087;50.226;8.682;2022-12-18T14:51:56;36.47;;;22.00;;
2161;SDS011;1087;50.226;8.682;2022-12-18T14:54:27;45.97;;;23.40;;
2161;SDS011;1087;50.226;8.682;2022-12-18T14:59:49;42.20;;;24.50;;
2161;SDS011;1087;50.226;8.682;2022-12-18T15:02:19;42.73;;;24.00;;
2161;SDS011;1087;50.226;8.682;2022-12-18T15:04:59;39.37;;;23.80;;
2161;SDS011;1087;50.226;8.682;2022-12-18T15:07:46;47.17;;;24.70;;
2161;SDS011;1087;50.226;8.682;2022-12-18T15:10:17;49.67;;;25.77;;
2161;SDS011;1087;50.226;8.682;2022-12-18T15:20:44;42.33;;;25.53;;
2161;SDS011;1087;50.226;8.682;2022-12-18T15:23:34;42.77;;;23.93;;
2161;SDS011;1087;50.226;8.682;2022-12-18T15:26:10;50.33;;;28.57;;
2161;SDS011;1087;50.226;8.682;2022-12-18T15:28:38;44.77;;;26.23;;
2161;SDS011;1087;50.226;8.682;2022-12-18T15:36:18;50.60;;;26.97;;
2161;SDS011;1087;50.226;8.682;2022-12-18T15:38:48;48.57;;;26.97;;
2161;SDS011;1087;50.226;8.682;2022-12-18T15:41:20;61.53;;;31.40;;
2161;SDS011;1087;50.226;8.682;2022-12-18T15:43:47;50.43;;;28.13;;
2161;SDS011;1087;50.226;8.682;2022-12-18T15:46:15;55.33;;;31.10;;
2161;SDS011;1087;50.226;8.682;2022-12-18T15:48:47;58.43;;;34.27;;
2161;SDS011;1087;50.226;8.682;2022-12-18T15:53:45;68.73;;;36.83;;
2161;SDS011;1087;50.226;8.682;2022-12-18T15:56:12;53.13;;;28.37;;
2161;SDS011;1087;50.226;8.682;2022-12-18T15:58:58;49.67;;;30.33;;
2161;SDS011;1087;50.226;8.682;2022-12-18T16:01:26;54.57;;;30.50;;
2161;SDS011;1087;50.226;8.682;2022-12-18T16:03:53;60.00;;;33.97;;
2161;SDS011;1087;50.226;8.682;2022-12-18T16:06:20;65.07;;;34.40;;
2161;SDS011;1087;50.226;8.682;2022-12-18T16:08:46;51.23;;;30.97;;
2161;SDS011;1087;50.226;8.682;2022-12-18T16:11:25;55.37;;;32.10;;
2161;SDS011;1087;50.226;8.682;2022-12-18T16:14:19;52.67;;;33.10;;
2161;SDS011;1087;50.226;8.682;2022-12-18T16:16:46;51.57;;;34.83;;
2161;SDS011;1087;50.226;8.682;2022-12-18T16:19:17;58.33;;;34.80;;
2161;SDS011;1087;50.226;8.682;2022-12-18T16:21:43;55.03;;;32.03;;
2161;SDS011;1087;50.226;8.682;2022-12-18T16:24:18;56.00;;;33.10;;
2161;SDS011;1087;50.226;8.682;2022-12-18T16:26:46;53.50;;;32.17;;
2161;SDS011;1087;50.226;8.682;2022-12-18T16:29:12;50.20;;;26.57;;
2161;SDS011;1087;50.226;8.682;2022-12-18T16:31:38;56.93;;;31.07;;
2161;SDS011;1087;50.226;8.682;2022-12-18T16:34:23;55.57;;;31.13;;
2161;SDS011;1087;50.226;8.682;2022-12-18T16:36:51;80.40;;;39.73;;